sensor_id;sensor_type;location;lat;lon;timestamp;temperature;humidity
35682;DHT22;21805;51.022;4.782;2022-07-29T00:01:23;21.30;98.60
35682;DHT22;21805;51.022;4.782;2022-07-29T00:03:50;21.30;99.40
35682;DHT22;21805;51.022;4.782;2022-07-29T00:06:16;21.20;99.00
35682;DHT22;21805;51.022;4.782;2022-07-29T00:08:52;21.10;99.20
35682;DHT22;21805;51.022;4.782;2022-07-29T00:12:11;21.10;99.10
35682;DHT22;21805;51.022;4.782;2022-07-29T00:17:54;21.00;99.10
35682;DHT22;21805;51.022;4.782;2022-07-29T00:20:33;21.00;99.90
35682;DHT22;21805;51.022;4.782;2022-07-29T00:26:45;20.90;99.90
35682;DHT22;21805;51.022;4.782;2022-07-29T00:35:44;20.80;99.90
35682;DHT22;21805;51.022;4.782;2022-07-29T00:38:21;20.80;99.90
35682;DHT22;21805;51.022;4.782;2022-07-29T00:41:17;20.70;99.90
35682;DHT22;21805;51.022;4.782;2022-07-29T00:43:52;20.70;99.90
35682;DHT22;21805;51.022;4.782;2022-07-29T00:49:45;20.70;99.90
35682;DHT22;21805;51.022;4.782;2022-07-29T00:52:16;20.50;99.90
35682;DHT22;21805;51.022;4.782;2022-07-29T01:01:36;20.50;99.90
35682;DHT22;21805;51.022;4.782;2022-07-29T01:04:06;20.40;99.90
35682;DHT22;21805;51.022;4.782;2022-07-29T01:09:35;20.40;99.90
35682;DHT22;21805;51.022;4.782;2022-07-29T01:15:22;20.30;99.90
35682;DHT22;21805;51.022;4.782;2022-07-29T01:58:10;20.00;99.90
35682;DHT22;21805;51.022;4.782;2022-07-29T02:00:39;20.00;99.90
35682;DHT22;21805;51.022;4.782;2022-07-29T02:03:33;19.90;99.90
35682;DHT22;21805;51.022;4.782;2022-07-29T02:51:38;19.30;99.90
35682;DHT22;21805;51.022;4.782;2022-07-29T02:54:07;19.30;99.90
35682;DHT22;21805;51.022;4.782;2022-07-29T03:08:36;19.00;99.90
35682;DHT22;21805;51.022;4.782;2022-07-29T03:11:01;19.00;99.90
35682;DHT22;21805;51.022;4.782;2022-07-29T03:13:27;18.90;99.90
35682;DHT22;21805;51.022;4.782;2022-07-29T03:15:55;18.90;99.90
35682;DHT22;21805;51.022;4.782;2022-07-29T03:18:23;18.80;99.90
35682;DHT22;21805;51.022;4.782;2022-07-29T03:20:51;18.80;99.90
35682;DHT22;21805;51.022;4.782;2022-07-29T03:23:23;18.80;99.90
35682;DHT22;21805;51.022;4.782;2022-07-29T03:28:50;18.70;99.90
35682;DHT22;21805;51.022;4.782;2022-07-29T03:31:17;18.70;99.90
35682;DHT22;21805;51.022;4.782;2022-07-29T03:33:46;18.60;99.90
35682;DHT22;21805;51.022;4.782;2022-07-29T03:36:11;18.60;99.90
35682;DHT22;21805;51.022;4.782;2022-07-29T03:38:40;18.50;99.90
35682;DHT22;21805;51.022;4.782;2022-07-29T03:41:09;18.50;99.90
35682;DHT22;21805;51.022;4.782;2022-07-29T03:43:36;18.40;99.90
35682;DHT22;21805;51.022;4.782;2022-07-29T03:46:03;18.40;99.90
35682;DHT22;21805;51.022;4.782;2022-07-29T03:48:29;18.30;99.90
35682;DHT22;21805;51.022;4.782;2022-07-29T03:50:56;18.20;99.90
35682;DHT22;21805;51.022;4.782;2022-07-29T03:53:23;18.10;99.90
35682;DHT22;21805;51.022;4.782;2022-07-29T03:55:52;18.10;99.90
35682;DHT22;21805;51.022;4.782;2022-07-29T03:58:20;18.20;99.90
35682;DHT22;21805;51.022;4.782;2022-07-29T04:00:47;18.10;99.90
35682;DHT22;21805;51.022;4.782;2022-07-29T04:03:13;18.10;99.90
35682;DHT22;21805;51.022;4.782;2022-07-29T04:05:39;18.00;99.90
35682;DHT22;21805;51.022;4.782;2022-07-29T04:08:06;18.00;99.90
35682;DHT22;21805;51.022;4.782;2022-07-29T04:10:32;17.90;99.90
35682;DHT22;21805;51.022;4.782;2022-07-29T04:12:59;17.90;99.90
35682;DHT22;21805;51.022;4.782;2022-07-29T04:15:25;17.80;99.90
35682;DHT22;21805;51.022;4.782;2022-07-29T04:18:02;17.80;99.90
35682;DHT22;21805;51.022;4.782;2022-07-29T04:20:38;17.80;99.90
35682;DHT22;21805;51.022;4.782;2022-07-29T04:26:02;17.70;99.90
35682;DHT22;21805;51.022;4.782;2022-07-29T04:28:38;17.60;99.90
35682;DHT22;21805;51.022;4.782;2022-07-29T04:31:07;17.70;99.90
35682;DHT22;21805;51.022;4.782;2022-07-29T04:33:32;17.60;99.90
35682;DHT22;21805;51.022;4.782;2022-07-29T04:35:58;17.60;99.90
35682;DHT22;21805;51.022;4.782;2022-07-29T04:38:24;17.60;99.90
35682;DHT22;21805;51.022;4.782;2022-07-29T04:40:50;17.60;99.90
35682;DHT22;21805;51.022;4.782;2022-07-29T04:43:15;17.70;99.90
35682;DHT22;21805;51.022;4.782;2022-07-29T04:45:50;17.60;99.90
35682;DHT22;21805;51.022;4.782;2022-07-29T04:48:16;17.60;99.90
35682;DHT22;21805;51.022;4.782;2022-07-29T04:50:43;17.50;99.90
35682;DHT22;21805;51.022;4.782;2022-07-29T04:53:11;17.50;99.90
35682;DHT22;21805;51.022;4.782;2022-07-29T04:58:35;17.50;99.90
35682;DHT22;21805;51.022;4.782;2022-07-29T05:01:03;17.50;99.90
35682;DHT22;21805;51.022;4.782;2022-07-29T05:03:38;17.60;99.90
35682;DHT22;21805;51.022;4.782;2022-07-29T05:06:05;17.50;99.90
35682;DHT22;21805;51.022;4.782;2022-07-29T05:08:42;17.60;99.90
35682;DHT22;21805;51.022;4.782;2022-07-29T05:11:12;17.70;99.90
35682;DHT22;21805;51.022;4.782;2022-07-29T05:13:40;17.60;99.90
35682;DHT22;21805;51.022;4.782;2022-07-29T05:16:07;17.60;99.90
35682;DHT22;21805;51.022;4.782;2022-07-29T05:18:34;17.70;99.90
35682;DHT22;21805;51.022;4.782;2022-07-29T05:24:08;18.00;99.90
35682;DHT22;21805;51.022;4.782;2022-07-29T05:47:54;19.00;99.90
35682;DHT22;21805;51.022;4.782;2022-07-29T05:51:12;19.20;99.90
35682;DHT22;21805;51.022;4.782;2022-07-29T10:27:28;28.50;93.60
35682;DHT22;21805;51.022;4.782;2022-07-29T10:32:40;28.70;93.30
35682;DHT22;21805;51.022;4.782;2022-07-29T18:46:26;24.90;93.90
35682;DHT22;21805;51.022;4.782;2022-07-29T18:48:58;25.00;94.00
35682;DHT22;21805;51.022;4.782;2022-07-29T18:54:07;24.90;93.70
35682;DHT22;21805;51.022;4.782;2022-07-29T18:57:11;24.80;93.60
35682;DHT22;21805;51.022;4.782;2022-07-29T18:59:43;24.70;94.50
35682;DHT22;21805;51.022;4.782;2022-07-29T19:05:23;24.70;94.30
35682;DHT22;21805;51.022;4.782;2022-07-29T19:47:38;23.70;95.20
35682;DHT22;21805;51.022;4.782;2022-07-29T19:56:37;23.40;95.80
35682;DHT22;21805;51.022;4.782;2022-07-29T20:04:54;23.20;95.60
35682;DHT22;21805;51.022;4.782;2022-07-29T20:09:58;23.20;95.80
35682;DHT22;21805;51.022;4.782;2022-07-29T20:12:47;23.10;95.90
35682;DHT22;21805;51.022;4.782;2022-07-29T20:15:22;23.20;96.10
35682;DHT22;21805;51.022;4.782;2022-07-29T20:18:25;23.10;96.10
35682;DHT22;21805;51.022;4.782;2022-07-29T20:23:45;23.00;96.40
35682;DHT22;21805;51.022;4.782;2022-07-29T20:26:24;22.80;96.60
35682;DHT22;21805;51.022;4.782;2022-07-29T20:29:50;22.70;96.80
35682;DHT22;21805;51.022;4.782;2022-07-29T20:32:34;22.70;97.10
35682;DHT22;21805;51.022;4.782;2022-07-29T20:35:23;22.70;97.40
35682;DHT22;21805;51.022;4.782;2022-07-29T20:38:11;22.60;97.50
35682;DHT22;21805;51.022;4.782;2022-07-29T20:40:44;22.60;97.70
35682;DHT22;21805;51.022;4.782;2022-07-29T20:43:15;22.60;97.40
35682;DHT22;21805;51.022;4.782;2022-07-29T20:45:43;22.50;97.20
35682;DHT22;21805;51.022;4.782;2022-07-29T20:48:09;22.40;97.00
35682;DHT22;21805;51.022;4.782;2022-07-29T20:50:35;22.40;97.20
35682;DHT22;21805;51.022;4.782;2022-07-29T20:53:07;22.40;97.30
35682;DHT22;21805;51.022;4.782;2022-07-29T20:58:33;22.40;97.10
35682;DHT22;21805;51.022;4.782;2022-07-29T21:01:04;22.30;97.30
35682;DHT22;21805;51.022;4.782;2022-07-29T21:03:48;22.20;97.50
35682;DHT22;21805;51.022;4.782;2022-07-29T21:09:24;22.00;97.70
35682;DHT22;21805;51.022;4.782;2022-07-29T21:12:24;21.90;97.90
35682;DHT22;21805;51.022;4.782;2022-07-29T21:15:17;21.90;98.00
35682;DHT22;21805;51.022;4.782;2022-07-29T21:20:53;21.70;98.40
35682;DHT22;21805;51.022;4.782;2022-07-29T21:23:23;21.60;98.40
35682;DHT22;21805;51.022;4.782;2022-07-29T21:25:58;21.60;98.60
35682;DHT22;21805;51.022;4.782;2022-07-29T21:31:16;21.50;98.80
35682;DHT22;21805;51.022;4.782;2022-07-29T21:34:03;21.50;99.00
35682;DHT22;21805;51.022;4.782;2022-07-29T21:36:41;21.50;99.20
35682;DHT22;21805;51.022;4.782;2022-07-29T21:39:08;21.40;99.30
35682;DHT22;21805;51.022;4.782;2022-07-29T21:41:45;21.40;99.40
35682;DHT22;21805;51.022;4.782;2022-07-29T21:44:16;21.40;99.60
35682;DHT22;21805;51.022;4.782;2022-07-29T21:46:49;21.40;99.80
35682;DHT22;21805;51.022;4.782;2022-07-29T22:02:21;21.00;99.90
35682;DHT22;21805;51.022;4.782;2022-07-29T22:04:52;21.10;99.90
35682;DHT22;21805;51.022;4.782;2022-07-29T22:07:32;21.10;99.90
35682;DHT22;21805;51.022;4.782;2022-07-29T22:16:00;20.90;99.90
35682;DHT22;21805;51.022;4.782;2022-07-29T22:18:35;21.00;99.90
35682;DHT22;21805;51.022;4.782;2022-07-29T22:21:03;21.00;99.90
35682;DHT22;21805;51.022;4.782;2022-07-29T22:23:43;20.90;99.90
35682;DHT22;21805;51.022;4.782;2022-07-29T22:26:33;20.90;99.90
35682;DHT22;21805;51.022;4.782;2022-07-29T22:29:07;20.90;99.90
35682;DHT22;21805;51.022;4.782;2022-07-29T22:31:42;20.90;99.90
35682;DHT22;21805;51.022;4.782;2022-07-29T22:34:11;20.90;99.90
35682;DHT22;21805;51.022;4.782;2022-07-29T22:36:39;20.70;99.90
35682;DHT22;21805;51.022;4.782;2022-07-29T22:39:05;20.80;99.90
35682;DHT22;21805;51.022;4.782;2022-07-29T22:41:34;20.80;99.90
35682;DHT22;21805;51.022;4.782;2022-07-29T22:46:35;20.60;99.90
35682;DHT22;21805;51.022;4.782;2022-07-29T22:49:02;20.60;99.90
35682;DHT22;21805;51.022;4.782;2022-07-29T22:54:01;20.40;99.90
35682;DHT22;21805;51.022;4.782;2022-07-29T22:56:27;20.40;99.90
35682;DHT22;21805;51.022;4.782;2022-07-29T22:58:53;20.40;99.90
35682;DHT22;21805;51.022;4.782;2022-07-29T23:01:24;20.30;99.90
35682;DHT22;21805;51.022;4.782;2022-07-29T23:03:55;20.30;99.90
35682;DHT22;21805;51.022;4.782;2022-07-29T23:11:28;20.20;99.90
35682;DHT22;21805;51.022;4.782;2022-07-29T23:13:56;20.10;99.90
35682;DHT22;21805;51.022;4.782;2022-07-29T23:16:24;20.10;99.90
35682;DHT22;21805;51.022;4.782;2022-07-29T23:18:50;20.00;99.90
35682;DHT22;21805;51.022;4.782;2022-07-29T23:21:20;20.10;99.90
35682;DHT22;21805;51.022;4.782;2022-07-29T23:23:46;20.00;99.90
35682;DHT22;21805;51.022;4.782;2022-07-29T23:26:14;20.00;99.90
35682;DHT22;21805;51.022;4.782;2022-07-29T23:28:42;19.90;99.90
35682;DHT22;21805;51.022;4.782;2022-07-29T23:31:17;19.90;99.90
35682;DHT22;21805;51.022;4.782;2022-07-29T23:33:43;19.90;99.90
35682;DHT22;21805;51.022;4.782;2022-07-29T23:36:12;19.80;99.90
35682;DHT22;21805;51.022;4.782;2022-07-29T23:38:39;19.80;99.90
35682;DHT22;21805;51.022;4.782;2022-07-29T23:41:07;19.70;99.90
35682;DHT22;21805;51.022;4.782;2022-07-29T23:46:09;19.60;99.90
35682;DHT22;21805;51.022;4.782;2022-07-29T23:48:36;19.60;99.90
35682;DHT22;21805;51.022;4.782;2022-07-29T23:51:02;19.60;99.90
35682;DHT22;21805;51.022;4.782;2022-07-29T23:53:28;19.60;99.90
35682;DHT22;21805;51.022;4.782;2022-07-29T23:55:55;19.60;99.90
35682;DHT22;21805;51.022;4.782;2022-07-29T23:58:24;19.50;99.90
